sensor_id;sensor_type;location;lat;lon;timestamp;temperature;humidity
36444;DHT22;24692;45.642;13.806;2024-03-08T00:01:08;9.80;99.90
36444;DHT22;24692;45.642;13.806;2024-03-08T00:03:34;9.70;99.90
36444;DHT22;24692;45.642;13.806;2024-03-08T00:06:00;9.80;99.90
36444;DHT22;24692;45.642;13.806;2024-03-08T00:08:25;9.80;99.90
36444;DHT22;24692;45.642;13.806;2024-03-08T00:10:51;9.70;99.90
36444;DHT22;24692;45.642;13.806;2024-03-08T00:13:16;9.70;99.90
36444;DHT22;24692;45.642;13.806;2024-03-08T00:15:42;9.70;99.90
36444;DHT22;24692;45.642;13.806;2024-03-08T00:18:08;9.70;99.90
36444;DHT22;24692;45.642;13.806;2024-03-08T00:20:33;9.70;99.90
36444;DHT22;24692;45.642;13.806;2024-03-08T00:22:59;9.70;99.90
36444;DHT22;24692;45.642;13.806;2024-03-08T00:25:25;9.70;99.90
36444;DHT22;24692;45.642;13.806;2024-03-08T00:27:50;9.70;99.90
36444;DHT22;24692;45.642;13.806;2024-03-08T00:30:16;9.80;99.90
36444;DHT22;24692;45.642;13.806;2024-03-08T00:32:42;9.90;99.90
36444;DHT22;24692;45.642;13.806;2024-03-08T00:35:08;9.80;99.90
36444;DHT22;24692;45.642;13.806;2024-03-08T00:37:33;9.80;99.90
36444;DHT22;24692;45.642;13.806;2024-03-08T00:40:00;9.90;99.90
36444;DHT22;24692;45.642;13.806;2024-03-08T00:42:25;9.80;99.90
36444;DHT22;24692;45.642;13.806;2024-03-08T00:44:51;9.70;99.90
36444;DHT22;24692;45.642;13.806;2024-03-08T00:47:17;9.70;99.90
36444;DHT22;24692;45.642;13.806;2024-03-08T00:49:42;9.70;99.90
36444;DHT22;24692;45.642;13.806;2024-03-08T00:52:08;9.60;99.90
36444;DHT22;24692;45.642;13.806;2024-03-08T00:54:35;9.60;99.90
36444;DHT22;24692;45.642;13.806;2024-03-08T00:57:02;9.60;99.90
36444;DHT22;24692;45.642;13.806;2024-03-08T00:59:29;9.60;99.90
36444;DHT22;24692;45.642;13.806;2024-03-08T01:01:54;9.50;99.90
36444;DHT22;24692;45.642;13.806;2024-03-08T01:04:20;9.50;99.90
36444;DHT22;24692;45.642;13.806;2024-03-08T01:06:47;9.60;99.90
36444;DHT22;24692;45.642;13.806;2024-03-08T01:09:13;9.60;99.90
36444;DHT22;24692;45.642;13.806;2024-03-08T01:11:39;9.60;99.90
36444;DHT22;24692;45.642;13.806;2024-03-08T01:14:05;9.60;99.90
36444;DHT22;24692;45.642;13.806;2024-03-08T01:16:30;9.50;99.90
36444;DHT22;24692;45.642;13.806;2024-03-08T01:18:58;9.50;99.90
36444;DHT22;24692;45.642;13.806;2024-03-08T01:21:24;9.50;99.90
36444;DHT22;24692;45.642;13.806;2024-03-08T01:23:49;9.50;99.90
36444;DHT22;24692;45.642;13.806;2024-03-08T01:26:15;9.40;99.90
36444;DHT22;24692;45.642;13.806;2024-03-08T01:28:41;9.30;99.90
36444;DHT22;24692;45.642;13.806;2024-03-08T01:31:07;9.40;99.90
36444;DHT22;24692;45.642;13.806;2024-03-08T01:33:33;9.40;99.90
36444;DHT22;24692;45.642;13.806;2024-03-08T01:35:58;9.30;99.90
36444;DHT22;24692;45.642;13.806;2024-03-08T01:38:24;9.40;99.90
36444;DHT22;24692;45.642;13.806;2024-03-08T01:40:50;9.40;99.90
36444;DHT22;24692;45.642;13.806;2024-03-08T01:43:21;9.30;99.90
36444;DHT22;24692;45.642;13.806;2024-03-08T01:45:48;9.30;99.90
36444;DHT22;24692;45.642;13.806;2024-03-08T01:48:17;9.20;99.90
36444;DHT22;24692;45.642;13.806;2024-03-08T01:50:43;9.20;99.90
36444;DHT22;24692;45.642;13.806;2024-03-08T01:53:10;9.20;99.90
36444;DHT22;24692;45.642;13.806;2024-03-08T01:55:37;9.30;99.90
36444;DHT22;24692;45.642;13.806;2024-03-08T01:58:05;9.30;99.90
36444;DHT22;24692;45.642;13.806;2024-03-08T02:00:32;9.30;99.90
36444;DHT22;24692;45.642;13.806;2024-03-08T02:02:58;9.30;99.90
36444;DHT22;24692;45.642;13.806;2024-03-08T02:05:24;9.20;99.90
36444;DHT22;24692;45.642;13.806;2024-03-08T02:07:50;9.30;99.90
36444;DHT22;24692;45.642;13.806;2024-03-08T02:10:17;9.30;99.90
36444;DHT22;24692;45.642;13.806;2024-03-08T02:12:46;9.30;99.90
36444;DHT22;24692;45.642;13.806;2024-03-08T02:15:12;9.30;99.90
36444;DHT22;24692;45.642;13.806;2024-03-08T02:17:38;9.30;99.90
36444;DHT22;24692;45.642;13.806;2024-03-08T02:20:04;9.30;99.90
36444;DHT22;24692;45.642;13.806;2024-03-08T02:22:30;9.30;99.90
36444;DHT22;24692;45.642;13.806;2024-03-08T02:24:58;9.20;99.90
36444;DHT22;24692;45.642;13.806;2024-03-08T02:27:27;9.10;99.90
36444;DHT22;24692;45.642;13.806;2024-03-08T02:29:55;9.10;99.90
36444;DHT22;24692;45.642;13.806;2024-03-08T02:32:24;9.10;99.90
36444;DHT22;24692;45.642;13.806;2024-03-08T02:34:50;9.20;99.90
36444;DHT22;24692;45.642;13.806;2024-03-08T02:37:17;9.30;99.90
36444;DHT22;24692;45.642;13.806;2024-03-08T02:39:43;9.30;99.90
36444;DHT22;24692;45.642;13.806;2024-03-08T02:42:08;9.30;99.90
36444;DHT22;24692;45.642;13.806;2024-03-08T02:44:34;9.20;99.90
36444;DHT22;24692;45.642;13.806;2024-03-08T02:47:00;9.10;99.90
36444;DHT22;24692;45.642;13.806;2024-03-08T02:49:26;9.10;99.90
36444;DHT22;24692;45.642;13.806;2024-03-08T02:51:52;9.10;99.90
36444;DHT22;24692;45.642;13.806;2024-03-08T02:54:19;9.00;99.90
36444;DHT22;24692;45.642;13.806;2024-03-08T02:56:45;9.10;99.90
36444;DHT22;24692;45.642;13.806;2024-03-08T02:59:16;9.10;99.90
36444;DHT22;24692;45.642;13.806;2024-03-08T03:01:43;9.10;99.90
36444;DHT22;24692;45.642;13.806;2024-03-08T03:04:08;8.90;99.90
36444;DHT22;24692;45.642;13.806;2024-03-08T03:06:34;8.80;99.90
36444;DHT22;24692;45.642;13.806;2024-03-08T03:09:00;8.90;99.90
36444;DHT22;24692;45.642;13.806;2024-03-08T03:11:25;8.90;99.90
36444;DHT22;24692;45.642;13.806;2024-03-08T03:13:52;8.90;99.90
36444;DHT22;24692;45.642;13.806;2024-03-08T03:16:18;9.00;99.90
36444;DHT22;24692;45.642;13.806;2024-03-08T03:18:47;8.90;99.90
36444;DHT22;24692;45.642;13.806;2024-03-08T03:21:13;8.80;99.90
36444;DHT22;24692;45.642;13.806;2024-03-08T03:23:39;8.60;99.90
36444;DHT22;24692;45.642;13.806;2024-03-08T03:26:05;8.60;99.90
36444;DHT22;24692;45.642;13.806;2024-03-08T03:28:36;8.70;99.90
36444;DHT22;24692;45.642;13.806;2024-03-08T03:31:08;8.70;99.90
36444;DHT22;24692;45.642;13.806;2024-03-08T03:33:35;8.60;99.90
36444;DHT22;24692;45.642;13.806;2024-03-08T03:36:02;8.70;99.90
36444;DHT22;24692;45.642;13.806;2024-03-08T03:38:28;8.70;99.90
36444;DHT22;24692;45.642;13.806;2024-03-08T03:40:54;8.80;99.90
36444;DHT22;24692;45.642;13.806;2024-03-08T03:43:23;8.70;99.90
36444;DHT22;24692;45.642;13.806;2024-03-08T03:45:49;8.80;99.90
36444;DHT22;24692;45.642;13.806;2024-03-08T03:48:14;8.80;99.90
36444;DHT22;24692;45.642;13.806;2024-03-08T03:50:40;8.80;99.90
36444;DHT22;24692;45.642;13.806;2024-03-08T03:53:06;8.80;99.90
36444;DHT22;24692;45.642;13.806;2024-03-08T03:55:35;8.80;99.90
36444;DHT22;24692;45.642;13.806;2024-03-08T03:58:04;8.70;99.90
36444;DHT22;24692;45.642;13.806;2024-03-08T04:00:29;8.70;99.90
36444;DHT22;24692;45.642;13.806;2024-03-08T04:02:55;8.60;99.90
36444;DHT22;24692;45.642;13.806;2024-03-08T04:05:24;8.70;99.90
36444;DHT22;24692;45.642;13.806;2024-03-08T04:07:50;8.60;99.90
36444;DHT22;24692;45.642;13.806;2024-03-08T04:10:16;8.70;99.90
36444;DHT22;24692;45.642;13.806;2024-03-08T04:12:41;8.70;99.90
36444;DHT22;24692;45.642;13.806;2024-03-08T04:15:07;8.70;99.90
36444;DHT22;24692;45.642;13.806;2024-03-08T04:17:34;8.70;99.90
36444;DHT22;24692;45.642;13.806;2024-03-08T04:20:05;8.70;99.90
36444;DHT22;24692;45.642;13.806;2024-03-08T04:22:36;8.70;99.90
36444;DHT22;24692;45.642;13.806;2024-03-08T04:25:03;8.70;99.90
36444;DHT22;24692;45.642;13.806;2024-03-08T04:27:28;8.80;99.90
36444;DHT22;24692;45.642;13.806;2024-03-08T04:29:54;8.80;99.90
36444;DHT22;24692;45.642;13.806;2024-03-08T04:32:20;8.70;99.90
36444;DHT22;24692;45.642;13.806;2024-03-08T04:34:45;8.70;99.90
36444;DHT22;24692;45.642;13.806;2024-03-08T04:37:11;8.80;99.90
36444;DHT22;24692;45.642;13.806;2024-03-08T04:39:39;8.80;99.90
36444;DHT22;24692;45.642;13.806;2024-03-08T04:42:05;8.80;99.90
36444;DHT22;24692;45.642;13.806;2024-03-08T04:44:36;8.80;99.90
36444;DHT22;24692;45.642;13.806;2024-03-08T04:47:03;8.80;99.90
36444;DHT22;24692;45.642;13.806;2024-03-08T04:49:29;8.80;99.90
36444;DHT22;24692;45.642;13.806;2024-03-08T04:51:55;8.70;99.90
36444;DHT22;24692;45.642;13.806;2024-03-08T04:54:21;8.70;99.90
36444;DHT22;24692;45.642;13.806;2024-03-08T04:56:47;8.60;99.90
36444;DHT22;24692;45.642;13.806;2024-03-08T04:59:12;8.60;99.90
36444;DHT22;24692;45.642;13.806;2024-03-08T05:01:39;8.50;99.90
36444;DHT22;24692;45.642;13.806;2024-03-08T05:04:04;8.60;99.90
36444;DHT22;24692;45.642;13.806;2024-03-08T05:06:31;8.80;99.90
36444;DHT22;24692;45.642;13.806;2024-03-08T05:08:56;8.50;99.90
36444;DHT22;24692;45.642;13.806;2024-03-08T05:11:22;8.50;99.90
36444;DHT22;24692;45.642;13.806;2024-03-08T05:13:48;8.50;99.90
36444;DHT22;24692;45.642;13.806;2024-03-08T05:16:13;8.50;99.90
36444;DHT22;24692;45.642;13.806;2024-03-08T05:18:41;8.60;99.90
36444;DHT22;24692;45.642;13.806;2024-03-08T05:21:07;8.60;99.90
36444;DHT22;24692;45.642;13.806;2024-03-08T05:23:34;8.60;99.90
36444;DHT22;24692;45.642;13.806;2024-03-08T05:26:00;8.50;99.90
36444;DHT22;24692;45.642;13.806;2024-03-08T05:28:26;8.40;99.90
36444;DHT22;24692;45.642;13.806;2024-03-08T05:30:53;8.50;99.90
36444;DHT22;24692;45.642;13.806;2024-03-08T05:33:22;8.60;99.90
36444;DHT22;24692;45.642;13.806;2024-03-08T05:35:49;8.70;99.90
36444;DHT22;24692;45.642;13.806;2024-03-08T05:38:14;8.60;99.90
36444;DHT22;24692;45.642;13.806;2024-03-08T05:40:40;8.60;99.90
36444;DHT22;24692;45.642;13.806;2024-03-08T05:43:08;8.70;99.90
36444;DHT22;24692;45.642;13.806;2024-03-08T05:45:34;8.70;99.90
36444;DHT22;24692;45.642;13.806;2024-03-08T05:47:59;8.70;99.90
36444;DHT22;24692;45.642;13.806;2024-03-08T05:50:25;8.70;99.90
36444;DHT22;24692;45.642;13.806;2024-03-08T05:52:51;8.70;99.90
36444;DHT22;24692;45.642;13.806;2024-03-08T05:55:17;8.70;99.90
36444;DHT22;24692;45.642;13.806;2024-03-08T05:57:43;8.80;99.90
36444;DHT22;24692;45.642;13.806;2024-03-08T06:00:09;8.80;99.90
36444;DHT22;24692;45.642;13.806;2024-03-08T06:02:41;8.80;99.90
36444;DHT22;24692;45.642;13.806;2024-03-08T06:05:12;8.70;99.90
36444;DHT22;24692;45.642;13.806;2024-03-08T06:07:38;8.50;99.90
36444;DHT22;24692;45.642;13.806;2024-03-08T06:10:07;8.50;99.90
36444;DHT22;24692;45.642;13.806;2024-03-08T06:12:35;8.60;99.90
36444;DHT22;24692;45.642;13.806;2024-03-08T06:15:06;8.60;99.90
36444;DHT22;24692;45.642;13.806;2024-03-08T06:17:32;8.50;99.90
36444;DHT22;24692;45.642;13.806;2024-03-08T06:19:57;8.60;99.90
36444;DHT22;24692;45.642;13.806;2024-03-08T06:22:23;8.60;99.90
36444;DHT22;24692;45.642;13.806;2024-03-08T06:24:48;8.70;99.90
36444;DHT22;24692;45.642;13.806;2024-03-08T06:27:14;8.60;99.90
36444;DHT22;24692;45.642;13.806;2024-03-08T06:29:40;8.70;99.90
36444;DHT22;24692;45.642;13.806;2024-03-08T06:32:05;8.90;99.90
36444;DHT22;24692;45.642;13.806;2024-03-08T06:34:34;8.90;99.90
36444;DHT22;24692;45.642;13.806;2024-03-08T06:37:00;8.90;99.90
36444;DHT22;24692;45.642;13.806;2024-03-08T06:39:27;8.80;99.90
36444;DHT22;24692;45.642;13.806;2024-03-08T06:41:57;9.00;99.90
36444;DHT22;24692;45.642;13.806;2024-03-08T06:44:23;9.00;99.90
36444;DHT22;24692;45.642;13.806;2024-03-08T06:46:48;9.00;99.90
36444;DHT22;24692;45.642;13.806;2024-03-08T06:49:14;9.00;99.90
36444;DHT22;24692;45.642;13.806;2024-03-08T06:51:41;9.10;99.90
36444;DHT22;24692;45.642;13.806;2024-03-08T06:54:06;9.20;99.90
36444;DHT22;24692;45.642;13.806;2024-03-08T06:56:34;9.40;99.90
36444;DHT22;24692;45.642;13.806;2024-03-08T06:59:00;9.40;99.90
36444;DHT22;24692;45.642;13.806;2024-03-08T07:01:28;9.30;99.90
36444;DHT22;24692;45.642;13.806;2024-03-08T07:03:57;9.20;99.90
36444;DHT22;24692;45.642;13.806;2024-03-08T07:06:23;9.00;99.90
36444;DHT22;24692;45.642;13.806;2024-03-08T07:08:49;9.10;99.90
36444;DHT22;24692;45.642;13.806;2024-03-08T07:11:14;9.10;99.90
36444;DHT22;24692;45.642;13.806;2024-03-08T07:13:44;9.10;99.90
36444;DHT22;24692;45.642;13.806;2024-03-08T07:16:10;10.70;99.90
36444;DHT22;24692;45.642;13.806;2024-03-08T07:18:37;11.00;99.90
36444;DHT22;24692;45.642;13.806;2024-03-08T07:21:05;11.20;99.90
36444;DHT22;24692;45.642;13.806;2024-03-08T07:23:31;11.20;99.90
36444;DHT22;24692;45.642;13.806;2024-03-08T07:26:21;11.70;99.90
36444;DHT22;24692;45.642;13.806;2024-03-08T07:28:46;12.00;99.90
36444;DHT22;24692;45.642;13.806;2024-03-08T07:31:12;12.20;99.90
36444;DHT22;24692;45.642;13.806;2024-03-08T07:33:38;13.10;99.90
36444;DHT22;24692;45.642;13.806;2024-03-08T07:36:05;14.10;99.90
36444;DHT22;24692;45.642;13.806;2024-03-08T07:38:30;14.30;99.90
36444;DHT22;24692;45.642;13.806;2024-03-08T07:40:56;13.70;99.90
36444;DHT22;24692;45.642;13.806;2024-03-08T07:43:22;13.10;99.90
36444;DHT22;24692;45.642;13.806;2024-03-08T07:45:48;12.70;99.90
36444;DHT22;24692;45.642;13.806;2024-03-08T07:48:14;12.40;99.90
36444;DHT22;24692;45.642;13.806;2024-03-08T07:50:40;11.30;99.90
36444;DHT22;24692;45.642;13.806;2024-03-08T07:53:06;11.10;99.90
36444;DHT22;24692;45.642;13.806;2024-03-08T07:55:33;11.90;99.90
36444;DHT22;24692;45.642;13.806;2024-03-08T07:58:00;11.80;99.90
36444;DHT22;24692;45.642;13.806;2024-03-08T08:00:26;12.10;99.90
36444;DHT22;24692;45.642;13.806;2024-03-08T08:02:53;12.20;99.90
36444;DHT22;24692;45.642;13.806;2024-03-08T08:05:19;12.20;99.90
36444;DHT22;24692;45.642;13.806;2024-03-08T08:07:45;12.00;99.90
36444;DHT22;24692;45.642;13.806;2024-03-08T08:10:14;12.40;99.90
36444;DHT22;24692;45.642;13.806;2024-03-08T08:12:44;12.60;99.90
36444;DHT22;24692;45.642;13.806;2024-03-08T08:15:11;13.00;99.90
36444;DHT22;24692;45.642;13.806;2024-03-08T08:17:36;12.40;99.90
36444;DHT22;24692;45.642;13.806;2024-03-08T08:20:02;12.40;99.90
36444;DHT22;24692;45.642;13.806;2024-03-08T08:22:31;12.80;99.90
36444;DHT22;24692;45.642;13.806;2024-03-08T08:24:56;12.80;99.90
36444;DHT22;24692;45.642;13.806;2024-03-08T08:27:22;12.90;99.90
36444;DHT22;24692;45.642;13.806;2024-03-08T08:29:48;13.00;99.90
36444;DHT22;24692;45.642;13.806;2024-03-08T08:32:15;13.50;99.90
36444;DHT22;24692;45.642;13.806;2024-03-08T08:34:40;13.40;99.90
36444;DHT22;24692;45.642;13.806;2024-03-08T08:37:07;13.00;99.90
36444;DHT22;24692;45.642;13.806;2024-03-08T08:39:35;13.10;99.90
36444;DHT22;24692;45.642;13.806;2024-03-08T08:42:01;13.40;99.90
36444;DHT22;24692;45.642;13.806;2024-03-08T08:44:28;13.80;99.90
36444;DHT22;24692;45.642;13.806;2024-03-08T08:46:53;13.50;99.90
36444;DHT22;24692;45.642;13.806;2024-03-08T08:49:19;13.40;99.90
36444;DHT22;24692;45.642;13.806;2024-03-08T08:51:52;13.50;99.90
36444;DHT22;24692;45.642;13.806;2024-03-08T08:54:18;13.70;99.90
36444;DHT22;24692;45.642;13.806;2024-03-08T08:56:44;13.40;99.90
36444;DHT22;24692;45.642;13.806;2024-03-08T08:59:10;13.00;99.90
36444;DHT22;24692;45.642;13.806;2024-03-08T09:01:40;12.70;99.90
36444;DHT22;24692;45.642;13.806;2024-03-08T09:04:05;12.50;99.90
36444;DHT22;24692;45.642;13.806;2024-03-08T09:06:31;12.70;99.90
36444;DHT22;24692;45.642;13.806;2024-03-08T09:08:57;13.00;99.90
36444;DHT22;24692;45.642;13.806;2024-03-08T09:11:23;12.60;99.90
36444;DHT22;24692;45.642;13.806;2024-03-08T09:13:50;12.80;99.90
36444;DHT22;24692;45.642;13.806;2024-03-08T09:16:19;12.90;99.90
36444;DHT22;24692;45.642;13.806;2024-03-08T09:18:49;12.90;99.90
36444;DHT22;24692;45.642;13.806;2024-03-08T09:21:18;13.00;99.90
36444;DHT22;24692;45.642;13.806;2024-03-08T09:23:44;13.30;99.90
36444;DHT22;24692;45.642;13.806;2024-03-08T09:26:10;13.40;99.90
36444;DHT22;24692;45.642;13.806;2024-03-08T09:28:39;13.50;99.90
36444;DHT22;24692;45.642;13.806;2024-03-08T09:31:05;14.00;99.90
36444;DHT22;24692;45.642;13.806;2024-03-08T09:33:31;14.70;99.90
36444;DHT22;24692;45.642;13.806;2024-03-08T09:35:57;14.70;99.90
36444;DHT22;24692;45.642;13.806;2024-03-08T09:38:25;14.80;99.90
36444;DHT22;24692;45.642;13.806;2024-03-08T09:40:51;14.00;99.90
36444;DHT22;24692;45.642;13.806;2024-03-08T09:43:18;14.10;99.90
36444;DHT22;24692;45.642;13.806;2024-03-08T09:45:45;14.40;99.90
36444;DHT22;24692;45.642;13.806;2024-03-08T09:48:16;14.40;99.90
36444;DHT22;24692;45.642;13.806;2024-03-08T09:50:44;14.60;99.90
36444;DHT22;24692;45.642;13.806;2024-03-08T09:53:11;13.80;99.90
36444;DHT22;24692;45.642;13.806;2024-03-08T09:55:40;14.30;99.90
36444;DHT22;24692;45.642;13.806;2024-03-08T09:58:12;14.20;99.90
36444;DHT22;24692;45.642;13.806;2024-03-08T10:00:58;13.90;99.90
36444;DHT22;24692;45.642;13.806;2024-03-08T10:03:27;14.00;99.90
36444;DHT22;24692;45.642;13.806;2024-03-08T10:05:54;14.40;99.90
36444;DHT22;24692;45.642;13.806;2024-03-08T10:08:22;15.10;99.90
36444;DHT22;24692;45.642;13.806;2024-03-08T10:10:47;14.80;99.90
36444;DHT22;24692;45.642;13.806;2024-03-08T10:13:15;14.90;99.90
36444;DHT22;24692;45.642;13.806;2024-03-08T10:15:42;15.30;99.90
36444;DHT22;24692;45.642;13.806;2024-03-08T10:18:10;15.30;99.90
36444;DHT22;24692;45.642;13.806;2024-03-08T10:20:36;14.90;99.90
36444;DHT22;24692;45.642;13.806;2024-03-08T10:23:03;15.30;99.90
36444;DHT22;24692;45.642;13.806;2024-03-08T10:25:30;15.50;99.90
36444;DHT22;24692;45.642;13.806;2024-03-08T10:27:57;15.60;99.90
36444;DHT22;24692;45.642;13.806;2024-03-08T10:30:23;14.70;99.90
36444;DHT22;24692;45.642;13.806;2024-03-08T10:32:49;14.20;99.90
36444;DHT22;24692;45.642;13.806;2024-03-08T10:35:15;14.20;99.90
36444;DHT22;24692;45.642;13.806;2024-03-08T10:37:49;13.90;99.90
36444;DHT22;24692;45.642;13.806;2024-03-08T10:40:19;13.60;99.90
36444;DHT22;24692;45.642;13.806;2024-03-08T10:45:37;13.00;99.90
36444;DHT22;24692;45.642;13.806;2024-03-08T10:48:26;12.80;99.90
36444;DHT22;24692;45.642;13.806;2024-03-08T10:50:53;12.70;99.90
36444;DHT22;24692;45.642;13.806;2024-03-08T10:53:19;12.40;99.90
36444;DHT22;24692;45.642;13.806;2024-03-08T10:55:49;12.40;99.90
36444;DHT22;24692;45.642;13.806;2024-03-08T10:58:19;12.50;99.90
36444;DHT22;24692;45.642;13.806;2024-03-08T11:00:47;12.50;99.90
36444;DHT22;24692;45.642;13.806;2024-03-08T11:08:42;12.20;99.90
36444;DHT22;24692;45.642;13.806;2024-03-08T11:11:25;12.10;99.90
36444;DHT22;24692;45.642;13.806;2024-03-08T11:13:55;12.00;99.90
36444;DHT22;24692;45.642;13.806;2024-03-08T11:19:01;11.40;99.90
36444;DHT22;24692;45.642;13.806;2024-03-08T11:21:30;11.40;99.90
36444;DHT22;24692;45.642;13.806;2024-03-08T11:24:08;11.40;99.90
36444;DHT22;24692;45.642;13.806;2024-03-08T11:26:37;11.30;99.90
36444;DHT22;24692;45.642;13.806;2024-03-08T11:29:43;11.30;99.90
36444;DHT22;24692;45.642;13.806;2024-03-08T11:32:09;11.30;99.90
36444;DHT22;24692;45.642;13.806;2024-03-08T11:34:39;11.30;99.90
36444;DHT22;24692;45.642;13.806;2024-03-08T11:37:16;11.40;99.90
36444;DHT22;24692;45.642;13.806;2024-03-08T11:39:53;11.40;99.90
36444;DHT22;24692;45.642;13.806;2024-03-08T11:42:24;11.30;99.90
36444;DHT22;24692;45.642;13.806;2024-03-08T11:44:52;11.40;99.90
36444;DHT22;24692;45.642;13.806;2024-03-08T11:47:19;11.30;99.90
36444;DHT22;24692;45.642;13.806;2024-03-08T11:49:45;11.20;99.90
36444;DHT22;24692;45.642;13.806;2024-03-08T11:52:17;11.20;99.90
36444;DHT22;24692;45.642;13.806;2024-03-08T11:54:54;11.20;99.90
36444;DHT22;24692;45.642;13.806;2024-03-08T11:57:22;11.10;99.90
36444;DHT22;24692;45.642;13.806;2024-03-08T11:59:52;11.00;99.90
36444;DHT22;24692;45.642;13.806;2024-03-08T12:02:18;11.00;99.90
36444;DHT22;24692;45.642;13.806;2024-03-08T12:04:45;11.00;99.90
36444;DHT22;24692;45.642;13.806;2024-03-08T12:07:14;11.10;99.90
36444;DHT22;24692;45.642;13.806;2024-03-08T12:09:44;11.10;99.90
36444;DHT22;24692;45.642;13.806;2024-03-08T12:12:12;11.10;99.90
36444;DHT22;24692;45.642;13.806;2024-03-08T12:14:50;11.10;99.90
36444;DHT22;24692;45.642;13.806;2024-03-08T12:17:17;11.20;99.90
36444;DHT22;24692;45.642;13.806;2024-03-08T12:19:46;11.30;99.90
36444;DHT22;24692;45.642;13.806;2024-03-08T12:22:15;11.40;99.90
36444;DHT22;24692;45.642;13.806;2024-03-08T12:24:40;11.40;99.90
36444;DHT22;24692;45.642;13.806;2024-03-08T12:27:19;11.40;99.90
36444;DHT22;24692;45.642;13.806;2024-03-08T12:29:45;11.50;99.90
36444;DHT22;24692;45.642;13.806;2024-03-08T12:32:12;11.40;99.90
36444;DHT22;24692;45.642;13.806;2024-03-08T12:34:38;11.50;99.90
36444;DHT22;24692;45.642;13.806;2024-03-08T12:37:03;11.60;99.90
36444;DHT22;24692;45.642;13.806;2024-03-08T12:39:32;11.60;99.90
36444;DHT22;24692;45.642;13.806;2024-03-08T12:41:58;11.50;99.90
36444;DHT22;24692;45.642;13.806;2024-03-08T12:44:25;11.50;99.90
36444;DHT22;24692;45.642;13.806;2024-03-08T12:46:51;11.50;99.90
36444;DHT22;24692;45.642;13.806;2024-03-08T12:49:19;11.40;99.90
36444;DHT22;24692;45.642;13.806;2024-03-08T12:51:47;11.30;99.90
36444;DHT22;24692;45.642;13.806;2024-03-08T12:54:13;11.40;99.90
36444;DHT22;24692;45.642;13.806;2024-03-08T12:56:39;11.20;99.90
36444;DHT22;24692;45.642;13.806;2024-03-08T12:59:06;11.30;99.90
36444;DHT22;24692;45.642;13.806;2024-03-08T13:01:35;11.40;99.90
36444;DHT22;24692;45.642;13.806;2024-03-08T13:04:03;11.50;99.90
36444;DHT22;24692;45.642;13.806;2024-03-08T13:06:29;11.60;99.90
36444;DHT22;24692;45.642;13.806;2024-03-08T13:08:57;11.80;99.90
36444;DHT22;24692;45.642;13.806;2024-03-08T13:11:24;12.00;99.90
36444;DHT22;24692;45.642;13.806;2024-03-08T13:13:51;12.20;99.90
36444;DHT22;24692;45.642;13.806;2024-03-08T13:16:18;12.50;99.90
36444;DHT22;24692;45.642;13.806;2024-03-08T13:18:45;12.50;99.90
36444;DHT22;24692;45.642;13.806;2024-03-08T13:21:11;12.60;99.90
36444;DHT22;24692;45.642;13.806;2024-03-08T13:23:40;12.60;99.90
36444;DHT22;24692;45.642;13.806;2024-03-08T13:26:07;12.80;99.90
36444;DHT22;24692;45.642;13.806;2024-03-08T13:28:33;12.90;99.90
36444;DHT22;24692;45.642;13.806;2024-03-08T13:31:06;13.00;99.90
36444;DHT22;24692;45.642;13.806;2024-03-08T13:33:32;13.00;99.90
36444;DHT22;24692;45.642;13.806;2024-03-08T13:36:01;13.00;99.90
36444;DHT22;24692;45.642;13.806;2024-03-08T13:38:27;13.00;99.90
36444;DHT22;24692;45.642;13.806;2024-03-08T13:40:53;12.60;99.90
36444;DHT22;24692;45.642;13.806;2024-03-08T13:43:19;12.40;99.90
36444;DHT22;24692;45.642;13.806;2024-03-08T13:45:46;12.40;99.90
36444;DHT22;24692;45.642;13.806;2024-03-08T13:48:11;12.50;99.90
36444;DHT22;24692;45.642;13.806;2024-03-08T13:50:38;12.50;99.90
36444;DHT22;24692;45.642;13.806;2024-03-08T13:53:05;12.50;99.90
36444;DHT22;24692;45.642;13.806;2024-03-08T13:55:30;12.10;99.90
36444;DHT22;24692;45.642;13.806;2024-03-08T13:57:57;12.00;99.90
36444;DHT22;24692;45.642;13.806;2024-03-08T14:00:22;11.90;99.90
36444;DHT22;24692;45.642;13.806;2024-03-08T14:02:51;11.90;99.90
36444;DHT22;24692;45.642;13.806;2024-03-08T14:05:18;12.00;99.90
36444;DHT22;24692;45.642;13.806;2024-03-08T14:07:45;12.20;99.90
36444;DHT22;24692;45.642;13.806;2024-03-08T14:10:14;12.20;99.90
36444;DHT22;24692;45.642;13.806;2024-03-08T14:12:39;12.00;99.90
36444;DHT22;24692;45.642;13.806;2024-03-08T14:15:05;12.00;99.90
36444;DHT22;24692;45.642;13.806;2024-03-08T14:17:32;11.80;99.90
36444;DHT22;24692;45.642;13.806;2024-03-08T14:19:58;11.90;99.90
36444;DHT22;24692;45.642;13.806;2024-03-08T14:22:24;11.80;99.90
36444;DHT22;24692;45.642;13.806;2024-03-08T14:24:50;11.80;99.90
36444;DHT22;24692;45.642;13.806;2024-03-08T14:27:17;11.80;99.90
36444;DHT22;24692;45.642;13.806;2024-03-08T14:29:44;11.80;99.90
36444;DHT22;24692;45.642;13.806;2024-03-08T14:32:10;11.80;99.90
36444;DHT22;24692;45.642;13.806;2024-03-08T14:34:36;11.80;99.90
36444;DHT22;24692;45.642;13.806;2024-03-08T14:37:02;11.80;99.90
36444;DHT22;24692;45.642;13.806;2024-03-08T14:39:31;11.60;99.90
36444;DHT22;24692;45.642;13.806;2024-03-08T14:41:58;11.60;99.90
36444;DHT22;24692;45.642;13.806;2024-03-08T14:44:25;11.60;99.90
36444;DHT22;24692;45.642;13.806;2024-03-08T14:46:57;11.60;99.90
36444;DHT22;24692;45.642;13.806;2024-03-08T14:49:24;11.50;99.90
36444;DHT22;24692;45.642;13.806;2024-03-08T14:51:51;11.40;99.90
36444;DHT22;24692;45.642;13.806;2024-03-08T14:54:17;11.40;99.90
36444;DHT22;24692;45.642;13.806;2024-03-08T14:56:48;11.40;99.90
36444;DHT22;24692;45.642;13.806;2024-03-08T14:59:16;11.40;99.90
36444;DHT22;24692;45.642;13.806;2024-03-08T15:01:42;11.30;99.90
36444;DHT22;24692;45.642;13.806;2024-03-08T15:04:09;11.20;99.90
36444;DHT22;24692;45.642;13.806;2024-03-08T15:06:37;11.20;99.90
36444;DHT22;24692;45.642;13.806;2024-03-08T15:09:07;11.10;99.90
36444;DHT22;24692;45.642;13.806;2024-03-08T15:11:38;11.10;99.90
36444;DHT22;24692;45.642;13.806;2024-03-08T15:14:05;11.10;99.90
36444;DHT22;24692;45.642;13.806;2024-03-08T15:16:38;11.10;99.90
36444;DHT22;24692;45.642;13.806;2024-03-08T15:19:06;11.00;99.90
36444;DHT22;24692;45.642;13.806;2024-03-08T15:21:32;11.00;99.90
36444;DHT22;24692;45.642;13.806;2024-03-08T15:23:57;11.10;99.90
36444;DHT22;24692;45.642;13.806;2024-03-08T15:26:23;10.90;99.90
36444;DHT22;24692;45.642;13.806;2024-03-08T15:28:51;11.00;99.90
36444;DHT22;24692;45.642;13.806;2024-03-08T15:31:19;11.00;99.90
36444;DHT22;24692;45.642;13.806;2024-03-08T15:33:46;11.00;99.90